Terminal Aerodrome Forecast
Issued by NWS Grand Forks, ND

Home | Current Version | Previous Version | Graphics & Text | Print | Product List | Glossary On
Versions: 1 2 3 4 5 6 7 8 9 10 11 12 13 14 15 16 17
000
FTUS43 KFGF 291413 AAB
TAFFAR
TAF AMD
KFAR 291413Z 2914/3012 VRB05KT P6SM BKN200
      TEMPO 2914/2915 5SM HZ
     FM291800 33013G20KT P6SM SCT080 SCT250
     FM300000 34007KT P6SM SKC=

USA.gov is the U.S. government's official web portal to all federal, state and local government web resources and services.